aviador You're here:

KDMO Decoded Metar

SEDALIA in MO, USA
Report Time2017-07-22 23:53:00
UTC Time2017-07-23 00:55:14
Flight Rules vfr VFR
Wind220° at 09 kt
W.Decomp.*RWY 23: 8.8 kt HW 2 kt LCW
RWY 18: 7.2 kt HW 5.4 kt RCW
W.Rank220° ranks 4
Current wind is below 220° avg. (9.5)
Visibility9999 m
Phenomena:N/A
Clouds:N/A
Expected CloudBase > 3,600 ft AGL from Temp-Dew spread
CeilingNone
Temp35°C (ISA +22)
Dew Point26°C (60% RH)
Heat Index45.1°C
QNH1009 hPa
Density Alt3,947 ft
Elevation899 ft
Report Wrong Elevation
Raw Report
KDMO 222353Z AUTO 22009KT 10SM CLR 35/26 A2980 RMK AO2 SLP080
T03500261 10367 20344 58009=

Extra information for KDMO:More info

Metar Taf Metar & Taf Last 4 Metars F.Rules Stats Wind Profile Meteogram Temp Stats Airport Information Weather charts Add Link Nearby VenuesMetar ALERT Operation Metar Decoded Social comments

AIRNAV info for KDMO